createdAt,value
2022-08-17T00:00:51.830Z,0.60
2022-08-17T00:03:47.895Z,0.60
2022-08-17T00:06:16.235Z,0.60
2022-08-17T00:08:44.538Z,0.60
2022-08-17T00:11:12.731Z,0.60
2022-08-17T00:13:40.756Z,0.50
2022-08-17T00:16:09.156Z,0.60
2022-08-17T00:19:06.304Z,0.60
2022-08-17T00:21:25.323Z,0.50
2022-08-17T00:23:52.331Z,0.60
2022-08-17T00:26:43.716Z,0.60
2022-08-17T00:29:06.157Z,0.60
2022-08-17T00:31:32.518Z,0.60
2022-08-17T00:33:59.295Z,0.60
2022-08-17T00:36:25.692Z,0.70
2022-08-17T00:38:52.092Z,0.60
2022-08-17T00:41:19.992Z,0.60
2022-08-17T00:43:48.315Z,0.70
2022-08-17T00:46:14.567Z,0.60
2022-08-17T00:48:41.218Z,0.60
2022-08-17T00:51:30.745Z,0.63
2022-08-17T00:54:06.352Z,0.60
2022-08-17T00:56:34.082Z,0.70
2022-08-17T00:59:01.066Z,0.70
2022-08-17T01:01:27.543Z,0.70
2022-08-17T01:03:59.209Z,0.60
2022-08-17T01:06:27.068Z,0.70
2022-08-17T01:08:57.700Z,0.70
2022-08-17T01:11:24.424Z,0.70
2022-08-17T01:13:50.680Z,0.70
2022-08-17T01:16:25.532Z,0.70
2022-08-17T01:18:53.482Z,0.70
2022-08-17T01:21:22.870Z,0.80
2022-08-17T01:23:49.249Z,0.70
2022-08-17T01:26:16.178Z,0.77
2022-08-17T01:28:55.110Z,0.70
2022-08-17T01:31:22.747Z,0.70
2022-08-17T01:33:49.028Z,0.80
2022-08-17T01:36:15.375Z,0.70
2022-08-17T01:38:41.636Z,0.70
2022-08-17T01:41:11.679Z,0.70
2022-08-17T01:43:41.758Z,0.70
2022-08-17T01:46:08.025Z,0.70
2022-08-17T01:48:35.816Z,0.70
2022-08-17T01:51:02.762Z,0.70
2022-08-17T01:53:32.805Z,0.80
2022-08-17T01:56:01.312Z,0.80
2022-08-17T01:58:27.595Z,0.80
2022-08-17T02:01:00.833Z,0.73
2022-08-17T02:03:27.732Z,0.80
2022-08-17T02:05:54.027Z,0.80
2022-08-17T02:08:21.068Z,0.70
2022-08-17T02:11:11.166Z,0.70
2022-08-17T02:13:38.127Z,0.80
2022-08-17T02:16:04.414Z,0.70
2022-08-17T02:18:30.682Z,0.80
2022-08-17T02:20:57.060Z,0.80
2022-08-17T02:23:24.539Z,0.80
2022-08-17T02:25:50.914Z,0.80
2022-08-17T02:28:18.323Z,0.70
2022-08-17T02:31:01.045Z,0.80
2022-08-17T02:33:37.278Z,0.80
2022-08-17T02:36:10.142Z,0.80
2022-08-17T02:38:37.091Z,0.80
2022-08-17T02:41:04.382Z,0.80
2022-08-17T02:43:30.646Z,0.80
2022-08-17T02:45:56.987Z,0.80
2022-08-17T02:48:30.579Z,0.83
2022-08-17T02:50:57.675Z,0.80
2022-08-17T02:53:23.910Z,0.80
2022-08-17T02:55:52.311Z,0.90
2022-08-17T02:58:34.533Z,0.80
2022-08-17T03:01:03.197Z,0.80
2022-08-17T03:03:29.515Z,0.90
2022-08-17T03:05:55.774Z,0.80
2022-08-17T03:08:23.246Z,0.80
2022-08-17T03:10:50.349Z,0.90
2022-08-17T03:13:16.925Z,0.90
2022-08-17T03:15:47.432Z,0.80
2022-08-17T03:18:21.958Z,0.80
2022-08-17T03:20:51.601Z,0.90
2022-08-17T03:23:18.642Z,0.80
2022-08-17T03:25:50.508Z,0.90
2022-08-17T03:28:19.565Z,0.80
2022-08-17T03:30:45.843Z,0.90
2022-08-17T03:33:12.204Z,0.90
2022-08-17T03:35:40.267Z,0.80
2022-08-17T03:38:07.790Z,1.63
2022-08-17T03:40:55.858Z,0.83
2022-08-17T03:43:21.495Z,0.80
2022-08-17T03:46:10.770Z,0.80
2022-08-17T03:49:11.513Z,0.90
2022-08-17T03:51:56.350Z,0.80
2022-08-17T03:54:41.049Z,0.90
2022-08-17T03:57:08.635Z,0.90
2022-08-17T03:59:35.353Z,0.90
2022-08-17T04:02:04.082Z,0.80
2022-08-17T04:04:30.378Z,0.90
2022-08-17T04:06:56.750Z,0.90
2022-08-17T04:09:24.409Z,0.90
2022-08-17T04:11:50.704Z,0.90
2022-08-17T04:14:17.063Z,0.90
2022-08-17T04:16:44.002Z,0.90
2022-08-17T04:19:10.301Z,0.80
2022-08-17T04:21:36.594Z,0.90
2022-08-17T04:24:03.092Z,0.80
2022-08-17T04:26:54.127Z,0.90
2022-08-17T04:29:16.943Z,0.90
2022-08-17T04:31:43.465Z,0.80
2022-08-17T04:34:09.910Z,0.80
2022-08-17T04:36:36.338Z,0.80
2022-08-17T04:39:02.692Z,0.80
2022-08-17T04:41:47.454Z,0.80
2022-08-17T04:44:13.824Z,0.90
2022-08-17T04:47:00.146Z,0.80
2022-08-17T04:49:26.472Z,0.80
2022-08-17T04:51:55.831Z,0.80
2022-08-17T04:54:26.742Z,0.80
2022-08-17T04:56:53.080Z,0.80
2022-08-17T04:59:20.307Z,0.80
2022-08-17T05:01:49.160Z,0.80
2022-08-17T05:04:34.205Z,0.90
2022-08-17T05:07:01.534Z,0.90
2022-08-17T05:09:28.052Z,0.90
2022-08-17T05:11:55.318Z,0.90
2022-08-17T05:14:22.664Z,0.87
2022-08-17T05:16:59.599Z,0.80
2022-08-17T05:19:27.272Z,0.80
2022-08-17T05:21:53.736Z,0.80
2022-08-17T05:24:38.488Z,0.70
2022-08-17T05:27:06.486Z,0.70
2022-08-17T05:29:35.108Z,0.80
2022-08-17T05:32:39.028Z,0.90
2022-08-17T05:34:59.427Z,0.80
2022-08-17T05:37:25.683Z,0.80
2022-08-17T05:39:53.410Z,0.80
2022-08-17T05:42:19.980Z,0.80
2022-08-17T05:44:46.454Z,0.77
2022-08-17T05:47:12.869Z,0.80
2022-08-17T05:49:39.309Z,0.70
2022-08-17T05:52:14.724Z,0.80
2022-08-17T05:55:13.822Z,0.80
2022-08-17T05:57:53.341Z,0.80
2022-08-17T06:00:26.223Z,0.70
2022-08-17T06:02:56.302Z,0.80
2022-08-17T06:05:25.342Z,0.80
2022-08-17T06:08:02.320Z,0.70
2022-08-17T06:10:40.281Z,0.77
2022-08-17T06:13:15.816Z,0.70
2022-08-17T06:15:52.849Z,0.70
2022-08-17T06:18:20.456Z,0.70
2022-08-17T06:20:51.784Z,0.70
2022-08-17T06:23:27.327Z,0.80
2022-08-17T06:25:55.725Z,0.70
2022-08-17T06:28:32.088Z,0.60
2022-08-17T06:31:02.187Z,0.70
2022-08-17T06:33:34.172Z,0.70
2022-08-17T06:36:10.601Z,0.70
2022-08-17T06:38:51.834Z,0.70
2022-08-17T06:41:42.887Z,0.70
2022-08-17T06:44:12.673Z,0.70
2022-08-17T06:47:03.155Z,0.70
2022-08-17T06:49:33.113Z,0.70
2022-08-17T06:52:06.531Z,0.70
2022-08-17T06:54:45.593Z,0.60
2022-08-17T06:57:17.839Z,0.70
2022-08-17T06:59:54.858Z,0.70
2022-08-17T07:02:52.040Z,0.67
2022-08-17T07:05:19.680Z,0.60
2022-08-17T07:08:02.184Z,0.70
2022-08-17T07:10:31.121Z,0.60
2022-08-17T07:13:02.324Z,0.60
2022-08-17T07:15:42.209Z,0.70
2022-08-17T07:18:09.009Z,0.57
2022-08-17T07:20:35.872Z,0.60
2022-08-17T07:23:11.780Z,0.50
2022-08-17T07:25:38.091Z,0.60
2022-08-17T07:28:07.291Z,0.50
2022-08-17T07:30:45.677Z,0.60
2022-08-17T07:33:17.747Z,0.50
2022-08-17T07:35:44.911Z,0.50
2022-08-17T07:38:24.125Z,0.50
2022-08-17T07:40:57.447Z,0.50
2022-08-17T07:43:29.625Z,0.50
2022-08-17T07:46:16.096Z,0.60
2022-08-17T07:48:43.552Z,0.60
2022-08-17T07:51:22.104Z,0.50
2022-08-17T07:53:48.644Z,0.50
2022-08-17T07:56:34.870Z,0.50
2022-08-17T07:59:06.268Z,0.40
2022-08-17T08:01:39.604Z,0.50
2022-08-17T08:04:43.437Z,0.50
2022-08-17T08:07:21.808Z,0.50
2022-08-17T08:10:06.817Z,0.50
2022-08-17T08:12:35.425Z,0.50
2022-08-17T08:15:13.764Z,0.50
2022-08-17T08:18:06.435Z,0.50
2022-08-17T08:20:54.154Z,0.50
2022-08-17T08:23:39.491Z,0.60
2022-08-17T08:26:18.287Z,0.60
2022-08-17T08:29:01.397Z,0.50
2022-08-17T08:31:42.080Z,0.60
2022-08-17T08:34:44.592Z,0.60
2022-08-17T08:37:27.508Z,0.60
2022-08-17T08:39:59.170Z,0.60
2022-08-17T08:42:41.012Z,0.50
2022-08-17T08:45:21.883Z,0.60
2022-08-17T08:47:48.409Z,0.67
2022-08-17T08:50:38.227Z,0.50
2022-08-17T08:53:12.477Z,0.60
2022-08-17T08:55:48.998Z,0.70
2022-08-17T08:58:41.312Z,0.60
2022-08-17T09:01:35.127Z,0.60
2022-08-17T09:04:19.925Z,0.60
2022-08-17T09:07:02.090Z,0.60
2022-08-17T09:09:31.149Z,0.60
2022-08-17T09:12:03.540Z,0.60
2022-08-17T09:14:45.048Z,0.70
2022-08-17T09:17:21.618Z,0.70
2022-08-17T09:19:49.863Z,1.87
2022-08-17T09:22:25.513Z,0.60
2022-08-17T09:25:00.779Z,0.70
2022-08-17T09:27:31.971Z,0.70
2022-08-17T09:30:04.368Z,0.60
2022-08-17T09:32:40.094Z,0.60
2022-08-17T09:35:19.746Z,0.77
2022-08-17T09:37:58.277Z,0.80
2022-08-17T09:40:26.852Z,0.63
2022-08-17T09:43:12.978Z,0.60
2022-08-17T09:45:50.740Z,1.13
2022-08-17T09:48:27.505Z,0.60
2022-08-17T09:51:13.539Z,0.50
2022-08-17T09:53:40.526Z,0.50
2022-08-17T09:56:23.905Z,1.10
2022-08-17T09:58:56.386Z,0.50
2022-08-17T10:01:36.559Z,0.93
2022-08-17T10:04:02.975Z,0.40
2022-08-17T10:06:33.866Z,0.50
2022-08-17T10:09:08.434Z,0.50
2022-08-17T10:11:57.498Z,1.13
2022-08-17T10:14:44.387Z,1.33
2022-08-17T10:17:24.273Z,1.37
2022-08-17T10:19:59.864Z,0.40
2022-08-17T10:22:54.837Z,0.60
2022-08-17T10:25:54.021Z,0.50
2022-08-17T10:28:28.764Z,0.50
2022-08-17T10:31:10.732Z,0.40
2022-08-17T10:33:55.315Z,0.60
2022-08-17T10:36:33.830Z,0.40
2022-08-17T10:39:07.141Z,0.33
2022-08-17T10:41:40.780Z,0.40
2022-08-17T10:44:40.390Z,0.63
2022-08-17T10:47:05.481Z,0.40
2022-08-17T10:49:36.043Z,1.10
2022-08-17T10:52:04.822Z,1.50
2022-08-17T10:54:36.090Z,0.33
2022-08-17T10:57:02.570Z,0.33
2022-08-17T10:59:35.031Z,0.53
2022-08-17T11:02:04.993Z,0.30
2022-08-17T11:04:42.314Z,0.30
2022-08-17T11:07:14.984Z,0.30
2022-08-17T11:10:07.784Z,0.23
2022-08-17T11:12:54.267Z,0.20
2022-08-17T11:15:42.103Z,0.20
2022-08-17T11:18:27.288Z,0.30
2022-08-17T11:21:07.227Z,0.20
2022-08-17T11:23:45.159Z,0.30
2022-08-17T11:26:21.966Z,0.20
2022-08-17T11:28:52.743Z,0.20
2022-08-17T11:31:41.599Z,0.20
2022-08-17T11:34:18.398Z,0.20
2022-08-17T11:36:47.735Z,0.20
2022-08-17T11:39:32.932Z,0.20
2022-08-17T11:42:10.110Z,0.50
2022-08-17T11:44:39.482Z,0.27
2022-08-17T11:47:24.560Z,0.10
2022-08-17T11:50:23.476Z,0.10
2022-08-17T11:52:53.424Z,0.10
2022-08-17T11:55:35.824Z,0.50
2022-08-17T11:58:37.181Z,0.00
2022-08-17T12:01:05.966Z,0.00
2022-08-17T12:03:32.915Z,0.27
2022-08-17T12:06:07.010Z,0.28
2022-08-17T12:08:38.037Z,0.00
2022-08-17T12:11:10.471Z,0.00
2022-08-17T12:13:45.425Z,0.00
2022-08-17T12:16:16.311Z,0.00
2022-08-17T12:18:48.379Z,0.20
2022-08-17T12:21:32.827Z,0.00
2022-08-17T12:24:14.002Z,0.10
2022-08-17T12:26:43.947Z,0.00
2022-08-17T12:29:39.173Z,0.43
2022-08-17T12:32:04.535Z,0.00
2022-08-17T12:34:41.998Z,0.10
2022-08-17T12:37:15.116Z,0.00
2022-08-17T12:39:49.381Z,0.00
2022-08-17T12:42:23.062Z,0.00
2022-08-17T12:44:50.736Z,0.55
2022-08-17T12:47:22.428Z,0.00
2022-08-17T12:49:50.801Z,0.00
2022-08-17T12:52:20.786Z,0.00
2022-08-17T12:54:49.570Z,0.00
2022-08-17T12:57:17.981Z,0.00
2022-08-17T12:59:47.240Z,0.00
2022-08-17T13:02:23.637Z,0.00
2022-08-17T13:04:50.303Z,0.00
2022-08-17T13:07:26.938Z,0.00
2022-08-17T13:09:53.286Z,0.00
2022-08-17T13:12:25.974Z,0.00
2022-08-17T13:14:52.247Z,0.00
2022-08-17T13:17:25.723Z,0.00
2022-08-17T13:19:52.091Z,0.10
2022-08-17T13:22:22.254Z,0.20
2022-08-17T13:24:52.903Z,0.33
2022-08-17T13:27:20.132Z,0.00
2022-08-17T13:29:51.438Z,0.00
2022-08-17T13:32:40.457Z,0.00
2022-08-17T13:35:36.449Z,0.00
2022-08-17T13:38:06.402Z,0.13
2022-08-17T13:40:36.707Z,0.20
2022-08-17T13:43:03.466Z,0.00
2022-08-17T13:45:39.503Z,0.00
2022-08-17T13:48:13.957Z,0.00
2022-08-17T13:50:48.181Z,0.20
2022-08-17T13:53:17.454Z,0.00
2022-08-17T13:55:48.738Z,0.00
2022-08-17T13:58:19.463Z,0.00
2022-08-17T14:00:45.742Z,0.00
2022-08-17T14:03:12.003Z,0.20
2022-08-17T14:05:38.736Z,0.40
2022-08-17T14:08:06.771Z,0.00
2022-08-17T14:10:35.759Z,0.20
2022-08-17T14:13:02.040Z,0.00
2022-08-17T14:15:55.785Z,0.00
2022-08-17T14:18:17.635Z,0.03
2022-08-17T14:20:44.182Z,0.53
2022-08-17T14:23:11.042Z,0.20
2022-08-17T14:25:37.291Z,0.00
2022-08-17T14:28:06.326Z,0.00
2022-08-17T14:30:34.298Z,0.30
2022-08-17T14:33:02.013Z,0.00
2022-08-17T14:35:29.338Z,0.00
2022-08-17T14:37:55.763Z,0.30
2022-08-17T14:40:24.562Z,0.53
2022-08-17T14:42:51.363Z,0.00
2022-08-17T14:45:29.707Z,0.00
2022-08-17T14:47:58.729Z,0.10
2022-08-17T14:50:25.068Z,0.00
2022-08-17T14:52:52.763Z,0.20
2022-08-17T14:55:20.639Z,0.00
2022-08-17T14:57:46.980Z,0.00
2022-08-17T15:00:13.739Z,0.20
2022-08-17T15:02:48.231Z,0.00
2022-08-17T15:05:15.539Z,0.00
2022-08-17T15:07:45.058Z,0.00
2022-08-17T15:10:12.853Z,0.00
2022-08-17T15:12:39.974Z,0.47
2022-08-17T15:15:07.115Z,0.00
2022-08-17T15:17:45.081Z,0.00
2022-08-17T15:20:16.082Z,0.20
2022-08-17T15:22:43.532Z,0.00
2022-08-17T15:25:10.517Z,0.00
2022-08-17T15:27:36.806Z,0.00
2022-08-17T15:30:04.937Z,0.00
2022-08-17T15:32:38.151Z,0.00
2022-08-17T15:35:05.388Z,0.00
2022-08-17T15:37:36.273Z,0.00
2022-08-17T15:40:02.636Z,0.27
2022-08-17T15:42:29.230Z,0.00
2022-08-17T15:44:55.644Z,0.00
2022-08-17T15:47:22.095Z,0.00
2022-08-17T15:49:48.755Z,0.00
2022-08-17T15:52:14.982Z,0.00
2022-08-17T15:54:41.339Z,0.00
2022-08-17T15:57:11.574Z,0.00
2022-08-17T15:59:37.883Z,1.60
2022-08-17T16:03:14.239Z,0.00
2022-08-17T16:05:06.010Z,0.40
2022-08-17T16:07:36.964Z,0.00
2022-08-17T16:10:04.423Z,0.00
2022-08-17T16:12:30.744Z,0.00
2022-08-17T16:14:57.162Z,0.00
2022-08-17T16:17:39.305Z,0.00
2022-08-17T16:20:07.568Z,0.00
2022-08-17T16:22:41.810Z,0.10
2022-08-17T16:25:10.174Z,0.00
2022-08-17T16:27:36.582Z,0.00
2022-08-17T16:30:04.616Z,0.03
2022-08-17T16:32:31.904Z,0.00
2022-08-17T16:35:03.486Z,0.00
2022-08-17T16:37:30.829Z,0.00
2022-08-17T16:40:00.636Z,0.00
2022-08-17T16:42:28.883Z,0.00
2022-08-17T16:44:56.130Z,0.10
2022-08-17T16:47:22.532Z,0.00
2022-08-17T16:49:49.297Z,0.00
2022-08-17T16:52:32.467Z,0.00
2022-08-17T16:54:59.755Z,0.73
2022-08-17T16:57:26.045Z,0.30
2022-08-17T16:59:53.056Z,0.00
2022-08-17T17:02:28.717Z,0.00
2022-08-17T17:05:07.037Z,0.00
2022-08-17T17:07:36.309Z,0.00
2022-08-17T17:10:04.239Z,0.00
2022-08-17T17:13:01.090Z,0.00
2022-08-17T17:15:22.131Z,0.00
2022-08-17T17:17:49.637Z,0.00
2022-08-17T17:20:22.199Z,0.00
2022-08-17T17:22:48.515Z,0.00
2022-08-17T17:25:15.417Z,0.00
2022-08-17T17:28:00.739Z,0.10
2022-08-17T17:30:50.266Z,0.00
2022-08-17T17:33:18.364Z,0.00
2022-08-17T17:35:50.444Z,0.00
2022-08-17T17:38:19.909Z,0.00
2022-08-17T17:40:49.343Z,0.00
2022-08-17T17:43:37.775Z,0.00
2022-08-17T17:46:27.219Z,0.00
2022-08-17T17:48:55.190Z,0.00
2022-08-17T17:51:54.994Z,0.00
2022-08-17T17:54:14.063Z,0.00
2022-08-17T17:56:44.922Z,0.00
2022-08-17T17:59:12.714Z,0.00
2022-08-17T18:01:51.475Z,0.10
2022-08-17T18:04:30.945Z,0.00
2022-08-17T18:07:16.421Z,0.10
2022-08-17T18:10:01.130Z,0.10
2022-08-17T18:12:28.363Z,0.00
2022-08-17T18:15:06.971Z,0.10
2022-08-17T18:17:34.005Z,0.10
2022-08-17T18:20:00.265Z,0.10
2022-08-17T18:22:27.733Z,0.20
2022-08-17T18:24:56.477Z,0.10
2022-08-17T18:27:37.279Z,0.10
2022-08-17T18:30:12.630Z,0.10
2022-08-17T18:32:43.635Z,0.30
2022-08-17T18:35:10.148Z,0.10
2022-08-17T18:37:42.749Z,0.10
2022-08-17T18:40:19.401Z,0.20
2022-08-17T18:42:58.260Z,0.20
2022-08-17T18:45:35.817Z,0.20
2022-08-17T18:48:02.250Z,0.20
2022-08-17T18:50:35.727Z,0.20
2022-08-17T18:53:19.237Z,0.20
2022-08-17T18:55:45.614Z,0.30
2022-08-17T18:58:20.779Z,0.20
2022-08-17T19:00:49.156Z,0.20
2022-08-17T19:03:15.440Z,0.20
2022-08-17T19:05:46.860Z,0.20
2022-08-17T19:08:28.684Z,0.30
2022-08-17T19:11:03.525Z,0.20
2022-08-17T19:13:41.504Z,0.20
2022-08-17T19:16:15.773Z,0.30
2022-08-17T19:19:02.556Z,0.30
2022-08-17T19:21:41.407Z,0.30
2022-08-17T19:24:19.795Z,0.50
2022-08-17T19:26:56.693Z,0.33
2022-08-17T19:29:23.949Z,0.30
2022-08-17T19:31:50.271Z,0.30
2022-08-17T19:34:17.200Z,0.33
2022-08-17T19:37:01.995Z,0.30
2022-08-17T19:39:38.329Z,0.30
2022-08-17T19:42:12.308Z,0.30
2022-08-17T19:44:47.623Z,0.30
2022-08-17T19:47:53.831Z,0.30
2022-08-17T19:50:29.124Z,0.30
2022-08-17T19:53:04.062Z,0.30
2022-08-17T19:55:43.617Z,0.30
2022-08-17T19:58:25.788Z,0.30
2022-08-17T20:00:52.859Z,0.40
2022-08-17T20:03:22.703Z,0.40
2022-08-17T20:06:14.355Z,0.33
2022-08-17T20:08:47.678Z,0.30
2022-08-17T20:11:20.270Z,0.40
2022-08-17T20:14:06.834Z,0.30
2022-08-17T20:16:34.196Z,0.30
2022-08-17T20:19:03.227Z,0.30
2022-08-17T20:21:32.675Z,0.37
2022-08-17T20:24:05.536Z,0.40
2022-08-17T20:26:35.694Z,0.30
2022-08-17T20:29:19.235Z,0.40
2022-08-17T20:32:04.543Z,0.50
2022-08-17T20:34:37.066Z,0.30
2022-08-17T20:37:07.750Z,0.40
2022-08-17T20:39:41.320Z,0.40
2022-08-17T20:42:10.657Z,0.33
2022-08-17T20:44:38.838Z,0.40
2022-08-17T20:47:07.120Z,0.40
2022-08-17T20:49:44.346Z,0.40
2022-08-17T20:52:16.527Z,0.40
2022-08-17T20:54:45.974Z,0.40
2022-08-17T20:57:31.102Z,0.40
2022-08-17T21:00:16.681Z,0.40
2022-08-17T21:02:44.739Z,0.40
2022-08-17T21:05:34.480Z,0.43
2022-08-17T21:08:12.959Z,0.50
2022-08-17T21:10:40.252Z,0.40
2022-08-17T21:13:13.356Z,0.40
2022-08-17T21:15:49.666Z,0.50
2022-08-17T21:18:28.611Z,0.40
2022-08-17T21:21:00.961Z,0.40
2022-08-17T21:23:46.612Z,0.50
2022-08-17T21:26:30.680Z,0.50
2022-08-17T21:29:30.402Z,0.50
2022-08-17T21:31:59.083Z,0.50
2022-08-17T21:34:27.183Z,0.50
2022-08-17T21:36:53.507Z,0.50
2022-08-17T21:39:33.134Z,0.50
2022-08-17T21:41:59.797Z,0.50
2022-08-17T21:44:36.922Z,0.50
2022-08-17T21:47:24.590Z,0.40
2022-08-17T21:49:55.035Z,0.60
2022-08-17T21:52:22.917Z,0.50
2022-08-17T21:54:51.862Z,0.50
2022-08-17T21:57:20.854Z,0.50
2022-08-17T21:59:52.172Z,0.60
2022-08-17T22:02:20.771Z,0.50
2022-08-17T22:04:56.389Z,0.50
2022-08-17T22:07:34.833Z,0.50
2022-08-17T22:10:01.335Z,0.50
2022-08-17T22:12:27.609Z,0.50
2022-08-17T22:15:07.302Z,1.03
2022-08-17T22:17:36.468Z,0.57
2022-08-17T22:20:14.183Z,0.60
2022-08-17T22:23:05.081Z,0.60
2022-08-17T22:25:32.558Z,0.63
2022-08-17T22:28:06.547Z,0.57
2022-08-17T22:30:35.979Z,0.60
2022-08-17T22:33:22.184Z,0.60
2022-08-17T22:35:48.967Z,0.60
2022-08-17T22:38:18.277Z,0.70
2022-08-17T22:40:45.937Z,0.60
2022-08-17T22:43:12.494Z,0.60
2022-08-17T22:45:50.573Z,0.70
2022-08-17T22:48:19.557Z,0.60
2022-08-17T22:50:45.849Z,0.60
2022-08-17T22:53:35.581Z,0.60
2022-08-17T22:56:20.382Z,0.70
2022-08-17T22:59:10.613Z,0.70
2022-08-17T23:01:36.893Z,1.27
2022-08-17T23:04:05.773Z,0.70
2022-08-17T23:06:35.796Z,0.70
2022-08-17T23:09:04.158Z,0.70
2022-08-17T23:11:36.785Z,0.80
2022-08-17T23:14:18.223Z,0.70
2022-08-17T23:16:44.685Z,0.70
2022-08-17T23:19:12.181Z,0.70
2022-08-17T23:21:38.571Z,0.70
2022-08-17T23:24:08.705Z,0.70
2022-08-17T23:26:37.970Z,0.80
2022-08-17T23:29:06.331Z,0.73
2022-08-17T23:31:34.560Z,0.80
2022-08-17T23:34:01.351Z,0.80
2022-08-17T23:36:28.297Z,0.80
2022-08-17T23:38:54.635Z,0.70
2022-08-17T23:41:21.570Z,0.70
2022-08-17T23:43:49.115Z,0.70
2022-08-17T23:46:16.168Z,0.73
2022-08-17T23:48:42.546Z,0.80
2022-08-17T23:51:11.470Z,0.70
2022-08-17T23:53:41.879Z,0.87
2022-08-17T23:56:11.175Z,0.80
2022-08-17T23:58:38.721Z,0.80
